Time;durP1;ratioP1;P1;durP2;ratioP2;P2;SDS_P1;SDS_P2;PMS_P1;PMS_P2;Temp;Humidity;BMP_temperature;BMP_pressure;BME280_temperature;BME280_humidity;BME280_pressure;Samples;Min_cycle;Max_cycle;Signal;HPM_P1;HPM_P2
2021/01/13 00:00:46;;;;;;;;;;;4.30;99.90;;;;;;10444496;28;20450;-64
2021/01/13 00:05:47;;;;;;;;;;;4.20;99.90;;;;;;10445017;28;20011;-64
2021/01/13 00:10:49;;;;;;;;;;;4.00;99.90;;;;;;10444811;28;19960;-64
2021/01/13 00:15:50;;;;;;;;;;;3.90;99.90;;;;;;10444621;28;19960;-64
2021/01/13 00:20:51;;;;;;;;;;;3.80;99.90;;;;;;10444701;28;19932;-64
2021/01/13 00:25:53;;;;;;;;;;;3.90;99.90;;;;;;10444289;28;19931;-64
2021/01/13 00:30:54;;;;;;;;;;;4.00;99.90;;;;;;10444527;28;20258;-64
2021/01/13 00:35:56;;;;;;;;;;;3.80;99.90;;;;;;10444961;28;19924;-64
2021/01/13 00:40:58;;;;;;;;;;;3.70;99.90;;;;;;10453143;28;20303;-63
2021/01/13 00:45:59;;;;;;;;;;;3.50;99.90;;;;;;10452241;28;19982;-64
2021/01/13 00:51:01;;;;;;;;;;;3.50;99.90;;;;;;10449841;28;20215;-64
2021/01/13 00:56:03;;;;;;;;;;;3.50;99.90;;;;;;10453203;28;20020;-64
2021/01/13 01:01:04;;;;;;;;;;;3.50;99.90;;;;;;10450484;28;19978;-63
2021/01/13 01:06:06;;;;;;;;;;;3.40;99.90;;;;;;10466635;28;19970;-64
2021/01/13 01:11:07;;;;;;;;;;;3.50;99.90;;;;;;10451761;28;19925;-64
2021/01/13 01:16:09;;;;;;;;;;;3.50;99.90;;;;;;10450705;28;19972;-64
2021/01/13 01:21:10;;;;;;;;;;;3.40;99.90;;;;;;10450956;28;19929;-64
2021/01/13 01:26:12;;;;;;;;;;;3.30;99.90;;;;;;10450612;28;19975;-64
2021/01/13 01:31:13;;;;;;;;;;;3.40;99.90;;;;;;10450140;28;20019;-64
2021/01/13 01:36:15;;;;;;;;;;;3.40;99.90;;;;;;10450297;28;19925;-64
2021/01/13 01:41:18;;;;;;;;;;;3.50;99.90;;;;;;10481657;28;19939;-64
2021/01/13 01:46:23;;;;;;;;;;;3.50;99.90;;;;;;10449732;28;19995;-64
2021/01/13 01:51:25;;;;;;;;;;;3.40;99.90;;;;;;10449418;28;19924;-63
2021/01/13 01:56:27;;;;;;;;;;;3.40;99.90;;;;;;10449550;28;20016;-64
2021/01/13 02:01:30;;;;;;;;;;;3.40;99.90;;;;;;10448812;28;19928;-64
2021/01/13 02:06:32;;;;;;;;;;;3.40;99.90;;;;;;10448544;28;20369;-64
2021/01/13 02:11:37;;;;;;;;;;;3.40;99.90;;;;;;10447434;28;20282;-64
2021/01/13 02:16:40;;;;;;;;;;;3.40;99.90;;;;;;10436583;28;20394;-64
2021/01/13 02:21:43;;;;;;;;;;;3.30;99.90;;;;;;10448039;28;20284;-64
2021/01/13 02:26:59;;;;;;;;;;;3.30;99.90;;;;;;10448443;28;19929;-64
2021/01/13 02:32:04;;;;;;;;;;;3.30;99.90;;;;;;10448620;28;19972;-64
2021/01/13 02:37:08;;;;;;;;;;;3.30;99.90;;;;;;10448350;28;20373;-63
2021/01/13 02:42:13;;;;;;;;;;;3.20;99.90;;;;;;10448184;28;19929;-64
2021/01/13 02:47:21;;;;;;;;;;;3.20;99.90;;;;;;10444517;28;20447;-64
2021/01/13 02:52:24;;;;;;;;;;;3.20;99.90;;;;;;10447117;28;19925;-63
2021/01/13 02:57:27;;;;;;;;;;;3.10;99.90;;;;;;10447069;28;20006;-64
2021/01/13 03:02:36;;;;;;;;;;;3.00;99.90;;;;;;10448913;28;19979;-64
2021/01/13 03:07:38;;;;;;;;;;;2.90;99.90;;;;;;10454017;28;19925;-63
2021/01/13 03:12:40;;;;;;;;;;;2.80;99.90;;;;;;10453808;28;20380;-64
2021/01/13 03:17:49;;;;;;;;;;;2.80;99.90;;;;;;10453717;28;19967;-63
2021/01/13 03:22:58;;;;;;;;;;;2.90;99.90;;;;;;10453789;28;20392;-63
2021/01/13 03:28:00;;;;;;;;;;;2.80;99.90;;;;;;10452462;28;20032;-63
2021/01/13 03:33:01;;;;;;;;;;;2.80;99.90;;;;;;10453353;28;20443;-63
2021/01/13 03:38:02;;;;;;;;;;;2.80;99.90;;;;;;10452381;28;19968;-64
2021/01/13 03:43:10;;;;;;;;;;;2.80;99.90;;;;;;10452914;28;19976;-64
2021/01/13 03:48:17;;;;;;;;;;;2.70;99.90;;;;;;10454330;28;20451;-63
2021/01/13 03:53:20;;;;;;;;;;;2.70;99.90;;;;;;10452175;28;20302;-63
2021/01/13 03:58:40;;;;;;;;;;;2.70;99.90;;;;;;10452674;28;19964;-63
2021/01/13 04:03:51;;;;;;;;;;;2.70;99.90;;;;;;10447967;28;20038;-64
2021/01/13 04:08:52;;;;;;;;;;;2.70;99.90;;;;;;10447097;28;20027;-63
2021/01/13 04:13:54;;;;;;;;;;;2.70;99.90;;;;;;10449105;28;20008;-64
2021/01/13 04:18:56;;;;;;;;;;;2.70;99.90;;;;;;10452477;28;19974;-64
2021/01/13 04:23:58;;;;;;;;;;;2.70;99.90;;;;;;10453355;28;19924;-63
2021/01/13 04:28:59;;;;;;;;;;;2.70;99.90;;;;;;10452529;28;20468;-64
2021/01/13 04:34:01;;;;;;;;;;;2.70;99.90;;;;;;10452804;28;19971;-64
2021/01/13 04:39:02;;;;;;;;;;;2.90;99.90;;;;;;10452543;28;19972;-64
2021/01/13 04:44:12;;;;;;;;;;;3.00;99.90;;;;;;10452063;28;19924;-64
2021/01/13 04:49:17;;;;;;;;;;;3.00;99.90;;;;;;10466073;28;19924;-63
2021/01/13 04:54:19;;;;;;;;;;;2.80;99.90;;;;;;10452086;28;19929;-64
2021/01/13 04:59:30;;;;;;;;;;;3.00;99.90;;;;;;10450634;28;20404;-64
2021/01/13 05:04:46;;;;;;;;;;;3.00;99.90;;;;;;10452092;28;19971;-63
2021/01/13 05:09:57;;;;;;;;;;;3.00;99.90;;;;;;10455137;28;20413;-63
2021/01/13 05:14:59;;;;;;;;;;;3.00;99.90;;;;;;10450904;28;20011;-63
2021/01/13 05:20:06;;;;;;;;;;;2.90;99.90;;;;;;10450706;28;19925;-64
2021/01/13 05:25:08;;;;;;;;;;;2.80;99.90;;;;;;10412206;28;19965;-64
2021/01/13 05:30:10;;;;;;;;;;;2.80;99.90;;;;;;10449273;28;19960;-64
2021/01/13 05:35:11;;;;;;;;;;;2.80;99.90;;;;;;10450951;28;20524;-64
2021/01/13 05:40:13;;;;;;;;;;;2.70;99.90;;;;;;10449006;28;20027;-64
2021/01/13 05:45:15;;;;;;;;;;;2.60;99.90;;;;;;10449461;28;20016;-64
2021/01/13 05:50:17;;;;;;;;;;;2.70;99.90;;;;;;10449625;28;19929;-64
2021/01/13 05:55:20;;;;;;;;;;;2.70;99.90;;;;;;10464995;28;19932;-64
2021/01/13 06:00:22;;;;;;;;;;;2.70;99.90;;;;;;10463590;28;19932;-63
2021/01/13 06:05:27;;;;;;;;;;;2.70;99.90;;;;;;10449582;28;19932;-64
2021/01/13 06:10:33;;;;;;;;;;;2.60;99.90;;;;;;10448886;28;19924;-64
2021/01/13 06:15:34;;;;;;;;;;;2.60;99.90;;;;;;10448017;28;20379;-64
2021/01/13 06:20:36;;;;;;;;;;;2.60;99.90;;;;;;10449133;28;19925;-64
2021/01/13 06:25:40;;;;;;;;;;;2.60;99.90;;;;;;10447565;28;19971;-64
2021/01/13 06:30:42;;;;;;;;;;;2.60;99.90;;;;;;10448340;28;19964;-64
2021/01/13 06:36:00;;;;;;;;;;;2.60;99.90;;;;;;10446991;28;19925;-64
2021/01/13 06:41:03;;;;;;;;;;;2.70;99.90;;;;;;10447970;28;19972;-64
2021/01/13 06:46:17;;;;;;;;;;;2.70;99.90;;;;;;10447729;28;19929;-64
2021/01/13 06:51:19;;;;;;;;;;;2.90;99.90;;;;;;10422645;28;19929;-64
2021/01/13 06:56:21;;;;;;;;;;;2.90;99.90;;;;;;10447436;28;19931;-64
2021/01/13 07:01:22;;;;;;;;;;;2.90;99.90;;;;;;10475897;28;20360;-64
2021/01/13 07:06:24;;;;;;;;;;;3.00;99.90;;;;;;10447195;28;19925;-64
2021/01/13 07:11:25;;;;;;;;;;;2.90;99.90;;;;;;10446766;28;20019;-64
2021/01/13 07:16:28;;;;;;;;;;;3.00;99.90;;;;;;10439610;28;20023;-64
2021/01/13 07:21:34;;;;;;;;;;;3.00;99.90;;;;;;10441369;28;19932;-64
2021/01/13 07:26:37;;;;;;;;;;;2.90;99.90;;;;;;10445490;28;20019;-64
2021/01/13 07:31:38;;;;;;;;;;;3.00;99.90;;;;;;10444305;28;19994;-64
2021/01/13 07:36:44;;;;;;;;;;;3.20;99.90;;;;;;10444509;28;20355;-64
2021/01/13 07:41:49;;;;;;;;;;;3.20;99.90;;;;;;10445532;28;20016;-64
2021/01/13 07:47:00;;;;;;;;;;;3.30;99.90;;;;;;10443567;28;19971;-64
2021/01/13 07:52:07;;;;;;;;;;;3.30;99.90;;;;;;10459273;28;20478;-64
2021/01/13 07:57:14;;;;;;;;;;;3.30;99.90;;;;;;10444346;28;20304;-64
2021/01/13 08:02:34;;;;;;;;;;;3.30;99.90;;;;;;10444407;28;19967;-64
2021/01/13 08:07:40;;;;;;;;;;;3.30;99.90;;;;;;10443275;28;20266;-64
2021/01/13 08:13:01;;;;;;;;;;;3.40;99.90;;;;;;10460584;28;19952;-64
2021/01/13 08:18:23;;;;;;;;;;;3.40;99.90;;;;;;10438406;28;19968;-63
2021/01/13 08:23:32;;;;;;;;;;;3.50;99.90;;;;;;10443541;28;20408;-64
2021/01/13 08:28:41;;;;;;;;;;;3.50;99.90;;;;;;10448080;28;19978;-64
2021/01/13 08:33:44;;;;;;;;;;;3.60;99.90;;;;;;10442695;28;19964;-64
2021/01/13 08:39:04;;;;;;;;;;;3.50;99.90;;;;;;10443052;28;19950;-64
2021/01/13 08:44:07;;;;;;;;;;;3.60;99.90;;;;;;10435386;28;19929;-67
2021/01/13 08:49:09;;;;;;;;;;;3.70;99.90;;;;;;10438472;28;19991;-67
2021/01/13 08:54:20;;;;;;;;;;;3.90;99.90;;;;;;10442117;28;20015;-67
2021/01/13 08:59:54;;;;;;;;;;;3.90;99.90;;;;;;10444772;28;20416;-67
2021/01/13 09:04:57;;;;;;;;;;;3.90;99.90;;;;;;10417731;28;20329;-67
2021/01/13 09:09:58;;;;;;;;;;;3.90;99.90;;;;;;10450341;28;19976;-67
2021/01/13 09:15:09;;;;;;;;;;;3.90;99.90;;;;;;10449893;28;19929;-67
2021/01/13 09:20:10;;;;;;;;;;;3.90;99.90;;;;;;10455217;28;20034;-67
2021/01/13 09:25:13;;;;;;;;;;;3.90;99.90;;;;;;10449982;28;19932;-67
2021/01/13 09:30:24;;;;;;;;;;;4.10;99.90;;;;;;10449043;28;20205;-67
2021/01/13 09:35:45;;;;;;;;;;;4.10;99.90;;;;;;10448240;28;20385;-67
2021/01/13 09:40:52;;;;;;;;;;;4.20;99.90;;;;;;10448578;28;20122;-67
2021/01/13 09:45:55;;;;;;;;;;;4.30;99.90;;;;;;10448806;28;19970;-67
2021/01/13 09:50:58;;;;;;;;;;;4.40;99.90;;;;;;10446919;28;19932;-67
2021/01/13 09:56:01;;;;;;;;;;;4.50;99.90;;;;;;10445994;28;20481;-68
2021/01/13 10:01:07;;;;;;;;;;;4.70;99.90;;;;;;10445525;28;19955;-68
2021/01/13 10:06:20;;;;;;;;;;;4.70;99.90;;;;;;10440319;28;20023;-68
2021/01/13 10:11:42;;;;;;;;;;;4.70;99.90;;;;;;10446625;28;19925;-68
2021/01/13 10:16:44;;;;;;;;;;;4.80;99.90;;;;;;10444529;28;20014;-67
2021/01/13 10:21:48;;;;;;;;;;;5.00;99.90;;;;;;10444148;28;19925;-67
2021/01/13 10:26:51;;;;;;;;;;;5.20;99.90;;;;;;10471415;28;19929;-67
2021/01/13 10:31:52;;;;;;;;;;;5.30;99.90;;;;;;10446376;28;20384;-67
2021/01/13 10:36:54;;;;;;;;;;;5.30;99.90;;;;;;10444258;28;19964;-67
2021/01/13 10:42:05;;;;;;;;;;;5.30;99.90;;;;;;10463665;28;19925;-67
2021/01/13 10:47:08;;;;;;;;;;;5.30;99.90;;;;;;10474983;28;19967;-67
2021/01/13 10:52:12;;;;;;;;;;;5.20;99.90;;;;;;10442444;28;20371;-68
2021/01/13 10:57:15;;;;;;;;;;;5.20;99.90;;;;;;10471060;28;20309;-68
2021/01/13 11:02:17;;;;;;;;;;;5.30;99.90;;;;;;10447232;28;20420;-68
2021/01/13 11:07:20;;;;;;;;;;;5.50;99.90;;;;;;10421099;28;19925;-67
2021/01/13 11:12:22;;;;;;;;;;;5.60;99.90;;;;;;10446103;28;20020;-67
2021/01/13 11:17:25;;;;;;;;;;;5.80;99.90;;;;;;10445085;28;20015;-67
2021/01/13 11:22:45;;;;;;;;;;;5.80;99.90;;;;;;10440494;28;20014;-67
2021/01/13 11:27:53;;;;;;;;;;;5.70;99.90;;;;;;10442609;28;19972;-67
2021/01/13 11:32:56;;;;;;;;;;;5.70;99.90;;;;;;10444908;28;20051;-67
2021/01/13 11:38:16;;;;;;;;;;;5.80;99.90;;;;;;10444933;28;20027;-67
2021/01/13 11:43:41;;;;;;;;;;;6.00;99.90;;;;;;10445434;28;19978;-67
2021/01/13 11:48:52;;;;;;;;;;;6.00;99.90;;;;;;10444599;28;19964;-67
2021/01/13 11:53:53;;;;;;;;;;;6.10;99.90;;;;;;10445250;28;20015;-68
2021/01/13 11:58:55;;;;;;;;;;;6.20;99.90;;;;;;10445001;28;19932;-67
2021/01/13 12:04:00;;;;;;;;;;;6.20;99.90;;;;;;10458136;28;19929;-68
2021/01/13 12:09:01;;;;;;;;;;;6.30;99.90;;;;;;10444371;28;19928;-67
2021/01/13 12:14:02;;;;;;;;;;;6.20;99.90;;;;;;10443731;28;19976;-68
2021/01/13 12:19:03;;;;;;;;;;;6.20;99.90;;;;;;10443042;28;19959;-68
2021/01/13 12:24:15;;;;;;;;;;;6.30;99.90;;;;;;10440440;28;20473;-67
2021/01/13 12:29:21;;;;;;;;;;;6.30;99.90;;;;;;10474753;28;19924;-67
2021/01/13 12:34:26;;;;;;;;;;;6.20;99.90;;;;;;10448657;28;19932;-67
2021/01/13 12:39:28;;;;;;;;;;;6.20;99.90;;;;;;10450852;28;19976;-67
2021/01/13 12:44:30;;;;;;;;;;;6.20;99.90;;;;;;10442313;28;19925;-67
2021/01/13 12:49:31;;;;;;;;;;;6.20;99.90;;;;;;10441920;28;19929;-67
2021/01/13 12:54:33;;;;;;;;;;;6.30;99.90;;;;;;10454437;28;19928;-68
2021/01/13 12:59:34;;;;;;;;;;;6.20;99.90;;;;;;10463448;28;19925;-67
2021/01/13 13:04:35;;;;;;;;;;;6.10;99.90;;;;;;10450979;28;19925;-68
2021/01/13 13:09:36;;;;;;;;;;;6.30;99.90;;;;;;10450388;28;19932;-68
2021/01/13 13:14:38;;;;;;;;;;;6.40;99.90;;;;;;10448153;28;19982;-68
2021/01/13 13:19:39;;;;;;;;;;;6.30;99.90;;;;;;10444434;28;19932;-67
2021/01/13 13:24:40;;;;;;;;;;;6.30;99.90;;;;;;10445581;28;20148;-68
2021/01/13 13:29:42;;;;;;;;;;;6.30;99.90;;;;;;10462757;28;20254;-68
2021/01/13 13:34:45;;;;;;;;;;;6.20;99.90;;;;;;10462275;28;20399;-68
2021/01/13 13:39:46;;;;;;;;;;;6.10;99.90;;;;;;10446230;28;20023;-67
2021/01/13 13:44:48;;;;;;;;;;;6.00;99.90;;;;;;10445871;28;19956;-68
2021/01/13 13:49:50;;;;;;;;;;;6.00;99.90;;;;;;10446350;28;19948;-67
2021/01/13 13:54:51;;;;;;;;;;;5.90;99.90;;;;;;10446318;28;19933;-67
2021/01/13 13:59:52;;;;;;;;;;;5.80;99.90;;;;;;10444717;28;19929;-68
2021/01/13 14:04:54;;;;;;;;;;;5.70;99.90;;;;;;10445323;28;20360;-68
2021/01/13 14:09:55;;;;;;;;;;;5.70;99.90;;;;;;10472582;28;20567;-68
2021/01/13 14:14:58;;;;;;;;;;;5.70;99.90;;;;;;10462271;28;19925;-68
2021/01/13 14:19:59;;;;;;;;;;;5.70;99.90;;;;;;10447037;28;20019;-68
2021/01/13 14:25:00;;;;;;;;;;;5.70;99.90;;;;;;10445705;28;20010;-68
2021/01/13 14:30:03;;;;;;;;;;;5.50;99.90;;;;;;10444652;28;20039;-68
2021/01/13 14:35:06;;;;;;;;;;;5.40;99.90;;;;;;10468849;28;20015;-68
2021/01/13 14:40:08;;;;;;;;;;;5.30;99.90;;;;;;10455875;28;19976;-68
2021/01/13 14:45:10;;;;;;;;;;;5.10;99.90;;;;;;10445729;28;19932;-68
2021/01/13 14:50:12;;;;;;;;;;;5.10;99.90;;;;;;10446733;28;19983;-68
2021/01/13 14:55:19;;;;;;;;;;;5.10;99.90;;;;;;10455472;28;19964;-69
2021/01/13 15:00:21;;;;;;;;;;;5.10;99.90;;;;;;10462898;28;20411;-68
2021/01/13 15:05:22;;;;;;;;;;;5.00;99.90;;;;;;10445693;28;19924;-68
2021/01/13 15:10:24;;;;;;;;;;;4.90;99.90;;;;;;10493964;28;19979;-68
2021/01/13 15:15:28;;;;;;;;;;;4.90;99.90;;;;;;10444938;28;19929;-68
2021/01/13 15:20:30;;;;;;;;;;;4.90;99.90;;;;;;10445071;28;20011;-68
2021/01/13 15:25:31;;;;;;;;;;;4.90;99.90;;;;;;10443673;28;20368;-68
2021/01/13 15:30:33;;;;;;;;;;;4.80;99.90;;;;;;10442869;28;19991;-68
2021/01/13 15:35:36;;;;;;;;;;;4.80;99.90;;;;;;10404231;28;19967;-68
2021/01/13 15:40:37;;;;;;;;;;;4.70;99.90;;;;;;10443797;28;20012;-69
2021/01/13 15:45:39;;;;;;;;;;;4.50;99.90;;;;;;10443899;28;19958;-68
2021/01/13 15:50:40;;;;;;;;;;;4.40;99.90;;;;;;10444992;28;20042;-68
2021/01/13 15:55:42;;;;;;;;;;;4.30;99.90;;;;;;10442436;28;20360;-68
2021/01/13 16:00:43;;;;;;;;;;;4.20;99.90;;;;;;10443716;28;20351;-68
2021/01/13 16:05:45;;;;;;;;;;;4.20;99.90;;;;;;10444271;28;19971;-68
2021/01/13 16:10:47;;;;;;;;;;;4.20;99.90;;;;;;10452837;28;19972;-68
2021/01/13 16:15:49;;;;;;;;;;;4.10;99.90;;;;;;10452212;28;19925;-68
2021/01/13 16:20:51;;;;;;;;;;;4.10;99.90;;;;;;10452275;28;19964;-68
2021/01/13 16:25:52;;;;;;;;;;;4.00;99.90;;;;;;10452327;28;20434;-68
2021/01/13 16:30:53;;;;;;;;;;;3.90;99.90;;;;;;10448534;28;19925;-68
2021/01/13 16:35:55;;;;;;;;;;;4.00;99.90;;;;;;10452251;28;21260;-68
2021/01/13 16:40:56;;;;;;;;;;;3.90;99.90;;;;;;10452092;28;19971;-68
2021/01/13 16:46:05;;;;;;;;;;;3.90;99.90;;;;;;10457631;28;19959;-68
2021/01/13 16:51:07;;;;;;;;;;;3.90;99.90;;;;;;10465665;28;19931;-68
2021/01/13 16:56:09;;;;;;;;;;;3.80;99.90;;;;;;10447760;28;20140;-68
2021/01/13 17:01:11;;;;;;;;;;;3.80;99.90;;;;;;10483569;28;19963;-68
2021/01/13 17:06:12;;;;;;;;;;;3.80;99.90;;;;;;10449871;28;19971;-68
2021/01/13 17:11:13;;;;;;;;;;;3.90;99.90;;;;;;10449946;28;19982;-68
2021/01/13 17:16:15;;;;;;;;;;;3.90;99.90;;;;;;10448889;28;20015;-68
2021/01/13 17:21:17;;;;;;;;;;;3.90;99.90;;;;;;10446991;28;20008;-68
2021/01/13 17:26:20;;;;;;;;;;;3.90;99.90;;;;;;10449636;28;19939;-68
2021/01/13 17:31:21;;;;;;;;;;;3.90;99.90;;;;;;10446233;28;19925;-68
2021/01/13 17:36:22;;;;;;;;;;;3.90;99.90;;;;;;10444665;28;19929;-68
2021/01/13 17:41:25;;;;;;;;;;;3.90;99.90;;;;;;10448508;28;20373;-68
2021/01/13 17:46:27;;;;;;;;;;;3.90;99.90;;;;;;10446896;28;20351;-68
2021/01/13 17:51:31;;;;;;;;;;;3.90;99.90;;;;;;10448692;28;19931;-68
2021/01/13 17:56:32;;;;;;;;;;;3.90;99.90;;;;;;10447757;28;20296;-68
2021/01/13 18:01:34;;;;;;;;;;;3.80;99.90;;;;;;10465738;28;19925;-68
2021/01/13 18:06:35;;;;;;;;;;;3.90;99.90;;;;;;10450955;28;20028;-64
2021/01/13 18:11:37;;;;;;;;;;;3.80;99.90;;;;;;10447328;28;19925;-64
2021/01/13 18:16:38;;;;;;;;;;;3.70;99.90;;;;;;10446517;28;20490;-64
2021/01/13 18:21:40;;;;;;;;;;;3.80;99.90;;;;;;10447671;28;20007;-64
2021/01/13 18:26:41;;;;;;;;;;;3.80;99.90;;;;;;10447280;28;19924;-64
2021/01/13 18:31:43;;;;;;;;;;;3.80;99.90;;;;;;10430929;28;19929;-64
2021/01/13 18:36:44;;;;;;;;;;;3.80;99.90;;;;;;10442377;28;19928;-64
2021/01/13 18:41:46;;;;;;;;;;;3.80;99.90;;;;;;10446650;28;20031;-64
2021/01/13 18:46:47;;;;;;;;;;;3.90;99.90;;;;;;10445221;28;19931;-64
2021/01/13 18:51:49;;;;;;;;;;;3.80;99.90;;;;;;10445891;28;19933;-64
2021/01/13 18:56:53;;;;;;;;;;;3.80;99.90;;;;;;10446489;28;19925;-64
2021/01/13 19:01:59;;;;;;;;;;;3.80;99.90;;;;;;10446297;28;19924;-64
2021/01/13 19:07:00;;;;;;;;;;;3.80;99.90;;;;;;10456866;28;20019;-64
2021/01/13 19:12:01;;;;;;;;;;;3.90;99.90;;;;;;10450553;28;19924;-64
2021/01/13 19:17:04;;;;;;;;;;;4.00;99.90;;;;;;10444855;28;19947;-64
2021/01/13 19:22:06;;;;;;;;;;;4.20;99.90;;;;;;10446797;28;19925;-64
2021/01/13 19:27:07;;;;;;;;;;;4.20;99.90;;;;;;10446142;28;20385;-64
2021/01/13 19:32:12;;;;;;;;;;;4.20;99.90;;;;;;10478877;28;20334;-64
2021/01/13 19:37:13;;;;;;;;;;;4.30;99.90;;;;;;10442883;28;19967;-64
2021/01/13 19:42:15;;;;;;;;;;;4.30;99.90;;;;;;10442567;28;20274;-65
2021/01/13 19:47:16;;;;;;;;;;;4.40;99.90;;;;;;10441577;28;20522;-64
2021/01/13 19:52:20;;;;;;;;;;;4.60;99.90;;;;;;10440912;28;19931;-65
2021/01/13 19:57:21;;;;;;;;;;;4.60;99.90;;;;;;10446713;28;19968;-64
2021/01/13 20:02:22;;;;;;;;;;;4.60;99.90;;;;;;10446118;28;19963;-64
2021/01/13 20:07:24;;;;;;;;;;;4.50;99.90;;;;;;10446219;28;19970;-64
2021/01/13 20:12:25;;;;;;;;;;;4.30;99.90;;;;;;10442109;28;20023;-65
2021/01/13 20:17:26;;;;;;;;;;;4.30;99.90;;;;;;10442540;28;19957;-64
2021/01/13 20:22:28;;;;;;;;;;;4.30;99.90;;;;;;10456336;28;20011;-64
2021/01/13 20:27:29;;;;;;;;;;;4.40;99.90;;;;;;10446171;28;19935;-65
2021/01/13 20:32:30;;;;;;;;;;;4.40;99.90;;;;;;10445372;28;19970;-65
2021/01/13 20:37:32;;;;;;;;;;;4.50;99.90;;;;;;10442072;28;20020;-65
2021/01/13 20:42:33;;;;;;;;;;;4.50;99.90;;;;;;10444016;28;20396;-65
2021/01/13 20:47:35;;;;;;;;;;;4.60;99.90;;;;;;10444710;28;20373;-65
2021/01/13 20:52:36;;;;;;;;;;;4.50;99.90;;;;;;10444619;28;20028;-65
2021/01/13 20:57:41;;;;;;;;;;;4.60;99.90;;;;;;10452025;28;19929;-65
2021/01/13 21:02:43;;;;;;;;;;;4.60;99.90;;;;;;10451081;28;20011;-64
2021/01/13 21:07:44;;;;;;;;;;;4.60;99.90;;;;;;10450541;28;20027;-64
2021/01/13 21:12:46;;;;;;;;;;;4.60;99.90;;;;;;10451614;28;20019;-65
2021/01/13 21:17:47;;;;;;;;;;;4.60;99.90;;;;;;10450548;28;20007;-65
2021/01/13 21:22:49;;;;;;;;;;;4.70;99.90;;;;;;10449919;28;19971;-65
2021/01/13 21:27:53;;;;;;;;;;;4.70;99.90;;;;;;10451089;28;20023;-64
2021/01/13 21:32:54;;;;;;;;;;;4.80;99.90;;;;;;10450664;28;20054;-65
2021/01/13 21:37:57;;;;;;;;;;;4.80;99.90;;;;;;10450087;28;20019;-64
2021/01/13 21:42:58;;;;;;;;;;;4.80;99.90;;;;;;10450874;28;19971;-64
2021/01/13 21:47:59;;;;;;;;;;;4.80;99.90;;;;;;10449853;28;20385;-64
2021/01/13 21:53:04;;;;;;;;;;;4.80;99.90;;;;;;10450258;28;20384;-64
2021/01/13 21:58:06;;;;;;;;;;;4.80;99.90;;;;;;10450335;28;20448;-64
2021/01/13 22:03:07;;;;;;;;;;;4.80;99.90;;;;;;10456904;28;20019;-64
2021/01/13 22:08:08;;;;;;;;;;;4.80;99.90;;;;;;10465427;28;20016;-64
2021/01/13 22:13:10;;;;;;;;;;;4.90;99.90;;;;;;10449528;28;19936;-64
2021/01/13 22:18:11;;;;;;;;;;;4.80;99.90;;;;;;10449168;28;19963;-64
2021/01/13 22:23:13;;;;;;;;;;;4.80;99.90;;;;;;10481356;28;19980;-64
2021/01/13 22:28:14;;;;;;;;;;;4.80;99.90;;;;;;10448556;28;20349;-64
2021/01/13 22:33:15;;;;;;;;;;;4.80;99.90;;;;;;10448282;28;19975;-64
2021/01/13 22:38:17;;;;;;;;;;;4.90;99.90;;;;;;10463205;28;20835;-64
2021/01/13 22:43:19;;;;;;;;;;;4.80;99.90;;;;;;10448658;28;19939;-64
2021/01/13 22:48:21;;;;;;;;;;;4.70;99.90;;;;;;10447609;28;19924;-64
2021/01/13 22:53:23;;;;;;;;;;;4.80;99.90;;;;;;10447993;28;20448;-64
2021/01/13 22:58:24;;;;;;;;;;;4.90;99.90;;;;;;10447062;28;20416;-64
2021/01/13 23:03:25;;;;;;;;;;;5.00;99.90;;;;;;10447532;28;20019;-64
2021/01/13 23:08:27;;;;;;;;;;;5.00;99.90;;;;;;10447389;28;19932;-64
2021/01/13 23:13:29;;;;;;;;;;;5.00;99.90;;;;;;10447082;28;20015;-64
2021/01/13 23:18:30;;;;;;;;;;;5.00;99.90;;;;;;10445674;28;20016;-64
2021/01/13 23:23:31;;;;;;;;;;;5.00;99.90;;;;;;10446754;28;19960;-64
2021/01/13 23:28:32;;;;;;;;;;;5.00;99.90;;;;;;10446495;28;20396;-64
2021/01/13 23:33:34;;;;;;;;;;;5.20;99.90;;;;;;10446359;28;20019;-64
2021/01/13 23:38:36;;;;;;;;;;;5.20;99.90;;;;;;10446221;28;19925;-64
2021/01/13 23:43:37;;;;;;;;;;;5.20;99.90;;;;;;10446268;28;20015;-64
2021/01/13 23:48:39;;;;;;;;;;;5.10;99.90;;;;;;10445819;28;20012;-64
2021/01/13 23:53:40;;;;;;;;;;;5.10;99.90;;;;;;10445662;28;19979;-64
2021/01/13 23:58:41;;;;;;;;;;;5.00;99.90;;;;;;10445391;28;19979;-64
